sensor_id;sensor_type;location;lat;lon;timestamp;P1;durP1;ratioP1;P2;durP2;ratioP2
11970;SDS011;6045;42.682;23.294;2022-12-17T00:01:13;8.77;;;5.70;;
11970;SDS011;6045;42.682;23.294;2022-12-17T00:03:59;10.23;;;6.83;;
11970;SDS011;6045;42.682;23.294;2022-12-17T00:06:43;9.27;;;5.77;;
11970;SDS011;6045;42.682;23.294;2022-12-17T00:09:31;8.90;;;6.03;;
11970;SDS011;6045;42.682;23.294;2022-12-17T00:12:15;12.07;;;6.83;;
11970;SDS011;6045;42.682;23.294;2022-12-17T00:14:59;7.97;;;5.43;;
11970;SDS011;6045;42.682;23.294;2022-12-17T00:17:43;14.33;;;6.80;;
11970;SDS011;6045;42.682;23.294;2022-12-17T00:20:28;18.27;;;5.83;;
11970;SDS011;6045;42.682;23.294;2022-12-17T00:23:12;10.93;;;6.83;;
11970;SDS011;6045;42.682;23.294;2022-12-17T00:25:56;8.97;;;6.13;;
11970;SDS011;6045;42.682;23.294;2022-12-17T00:28:51;10.03;;;6.33;;
11970;SDS011;6045;42.682;23.294;2022-12-17T00:31:35;9.30;;;6.20;;
11970;SDS011;6045;42.682;23.294;2022-12-17T00:34:19;8.90;;;5.87;;
11970;SDS011;6045;42.682;23.294;2022-12-17T00:37:05;16.73;;;8.43;;
11970;SDS011;6045;42.682;23.294;2022-12-17T00:39:49;11.77;;;6.40;;
11970;SDS011;6045;42.682;23.294;2022-12-17T00:42:33;12.70;;;7.93;;
11970;SDS011;6045;42.682;23.294;2022-12-17T00:45:17;9.33;;;5.57;;
11970;SDS011;6045;42.682;23.294;2022-12-17T00:48:01;12.80;;;6.60;;
11970;SDS011;6045;42.682;23.294;2022-12-17T00:50:45;10.50;;;6.23;;
11970;SDS011;6045;42.682;23.294;2022-12-17T00:53:31;5.57;;;4.00;;
11970;SDS011;6045;42.682;23.294;2022-12-17T00:56:15;5.87;;;5.17;;
11970;SDS011;6045;42.682;23.294;2022-12-17T00:58:59;9.60;;;6.33;;
11970;SDS011;6045;42.682;23.294;2022-12-17T01:01:43;15.63;;;7.50;;
11970;SDS011;6045;42.682;23.294;2022-12-17T01:04:28;6.77;;;5.13;;
11970;SDS011;6045;42.682;23.294;2022-12-17T01:07:20;8.33;;;5.73;;
11970;SDS011;6045;42.682;23.294;2022-12-17T01:10:06;11.97;;;5.90;;
11970;SDS011;6045;42.682;23.294;2022-12-17T01:12:50;8.80;;;7.03;;
11970;SDS011;6045;42.682;23.294;2022-12-17T01:15:35;11.97;;;7.63;;
11970;SDS011;6045;42.682;23.294;2022-12-17T01:18:19;5.77;;;5.00;;
11970;SDS011;6045;42.682;23.294;2022-12-17T01:21:03;5.27;;;4.07;;
11970;SDS011;6045;42.682;23.294;2022-12-17T01:23:47;5.53;;;4.43;;
11970;SDS011;6045;42.682;23.294;2022-12-17T01:26:33;12.47;;;6.63;;
11970;SDS011;6045;42.682;23.294;2022-12-17T01:29:17;5.50;;;4.23;;
11970;SDS011;6045;42.682;23.294;2022-12-17T01:32:02;9.03;;;6.40;;
11970;SDS011;6045;42.682;23.294;2022-12-17T01:34:46;5.47;;;4.90;;
11970;SDS011;6045;42.682;23.294;2022-12-17T01:37:30;8.03;;;4.73;;
11970;SDS011;6045;42.682;23.294;2022-12-17T01:40:14;6.83;;;5.27;;
11970;SDS011;6045;42.682;23.294;2022-12-17T01:43:00;6.03;;;5.17;;
11970;SDS011;6045;42.682;23.294;2022-12-17T01:45:45;6.13;;;4.37;;
11970;SDS011;6045;42.682;23.294;2022-12-17T01:48:33;4.67;;;3.63;;
11970;SDS011;6045;42.682;23.294;2022-12-17T01:51:22;9.03;;;4.03;;
11970;SDS011;6045;42.682;23.294;2022-12-17T01:54:08;9.90;;;4.80;;
11970;SDS011;6045;42.682;23.294;2022-12-17T01:56:53;8.77;;;5.17;;
11970;SDS011;6045;42.682;23.294;2022-12-17T01:59:40;5.83;;;4.77;;
11970;SDS011;6045;42.682;23.294;2022-12-17T02:02:29;7.93;;;4.63;;
11970;SDS011;6045;42.682;23.294;2022-12-17T02:05:14;5.53;;;3.50;;
11970;SDS011;6045;42.682;23.294;2022-12-17T02:08:18;7.73;;;5.13;;
11970;SDS011;6045;42.682;23.294;2022-12-17T02:11:08;5.53;;;4.73;;
11970;SDS011;6045;42.682;23.294;2022-12-17T02:14:02;5.47;;;3.80;;
11970;SDS011;6045;42.682;23.294;2022-12-17T02:16:58;6.93;;;4.30;;
11970;SDS011;6045;42.682;23.294;2022-12-17T02:19:45;8.03;;;4.30;;
11970;SDS011;6045;42.682;23.294;2022-12-17T02:22:43;9.40;;;4.37;;
11970;SDS011;6045;42.682;23.294;2022-12-17T02:25:35;6.77;;;4.30;;
11970;SDS011;6045;42.682;23.294;2022-12-17T02:28:27;7.50;;;5.17;;
11970;SDS011;6045;42.682;23.294;2022-12-17T02:31:12;6.50;;;4.77;;
11970;SDS011;6045;42.682;23.294;2022-12-17T02:33:58;6.97;;;4.70;;
11970;SDS011;6045;42.682;23.294;2022-12-17T02:36:43;4.03;;;3.63;;
11970;SDS011;6045;42.682;23.294;2022-12-17T02:39:28;6.87;;;3.67;;
11970;SDS011;6045;42.682;23.294;2022-12-17T02:42:12;6.70;;;4.53;;
11970;SDS011;6045;42.682;23.294;2022-12-17T02:44:59;8.53;;;5.07;;
11970;SDS011;6045;42.682;23.294;2022-12-17T02:47:43;7.00;;;4.63;;
11970;SDS011;6045;42.682;23.294;2022-12-17T02:50:28;7.63;;;4.90;;
11970;SDS011;6045;42.682;23.294;2022-12-17T02:53:12;6.70;;;4.60;;
11970;SDS011;6045;42.682;23.294;2022-12-17T02:55:56;5.47;;;4.77;;
11970;SDS011;6045;42.682;23.294;2022-12-17T02:58:40;6.97;;;4.83;;
11970;SDS011;6045;42.682;23.294;2022-12-17T03:01:25;5.00;;;4.03;;
11970;SDS011;6045;42.682;23.294;2022-12-17T03:04:10;6.57;;;4.17;;
11970;SDS011;6045;42.682;23.294;2022-12-17T03:06:54;9.03;;;6.17;;
11970;SDS011;6045;42.682;23.294;2022-12-17T03:09:38;5.80;;;3.80;;
11970;SDS011;6045;42.682;23.294;2022-12-17T03:12:22;7.13;;;4.87;;
11970;SDS011;6045;42.682;23.294;2022-12-17T03:15:06;6.80;;;4.00;;
11970;SDS011;6045;42.682;23.294;2022-12-17T03:17:52;6.77;;;4.63;;
11970;SDS011;6045;42.682;23.294;2022-12-17T03:20:36;6.90;;;5.33;;
11970;SDS011;6045;42.682;23.294;2022-12-17T03:23:20;10.03;;;4.00;;
11970;SDS011;6045;42.682;23.294;2022-12-17T03:26:05;6.47;;;4.07;;
11970;SDS011;6045;42.682;23.294;2022-12-17T03:28:49;6.90;;;3.87;;
11970;SDS011;6045;42.682;23.294;2022-12-17T03:31:33;13.87;;;5.40;;
11970;SDS011;6045;42.682;23.294;2022-12-17T03:34:19;4.07;;;2.90;;
11970;SDS011;6045;42.682;23.294;2022-12-17T03:37:03;4.97;;;3.47;;
11970;SDS011;6045;42.682;23.294;2022-12-17T03:39:48;6.73;;;4.33;;
11970;SDS011;6045;42.682;23.294;2022-12-17T03:42:32;13.03;;;4.90;;
11970;SDS011;6045;42.682;23.294;2022-12-17T03:45:16;8.07;;;4.20;;
11970;SDS011;6045;42.682;23.294;2022-12-17T03:48:04;3.53;;;2.50;;
11970;SDS011;6045;42.682;23.294;2022-12-17T03:51:06;5.20;;;3.27;;
11970;SDS011;6045;42.682;23.294;2022-12-17T03:53:50;5.03;;;3.60;;
11970;SDS011;6045;42.682;23.294;2022-12-17T03:56:34;3.40;;;3.10;;
11970;SDS011;6045;42.682;23.294;2022-12-17T03:59:18;6.27;;;3.73;;
11970;SDS011;6045;42.682;23.294;2022-12-17T04:01:59;3.50;;;3.20;;
11970;SDS011;6045;42.682;23.294;2022-12-17T04:04:43;9.63;;;4.40;;
11970;SDS011;6045;42.682;23.294;2022-12-17T04:07:29;3.20;;;2.90;;
11970;SDS011;6045;42.682;23.294;2022-12-17T04:10:13;5.47;;;3.70;;
11970;SDS011;6045;42.682;23.294;2022-12-17T04:12:58;3.77;;;3.03;;
11970;SDS011;6045;42.682;23.294;2022-12-17T04:15:42;4.90;;;3.53;;
11970;SDS011;6045;42.682;23.294;2022-12-17T04:18:26;7.70;;;4.47;;
11970;SDS011;6045;42.682;23.294;2022-12-17T04:21:10;6.33;;;3.40;;
11970;SDS011;6045;42.682;23.294;2022-12-17T04:23:56;3.20;;;2.37;;
11970;SDS011;6045;42.682;23.294;2022-12-17T04:26:40;5.37;;;3.73;;
11970;SDS011;6045;42.682;23.294;2022-12-17T04:29:24;3.57;;;3.10;;
11970;SDS011;6045;42.682;23.294;2022-12-17T04:32:09;4.30;;;3.90;;
11970;SDS011;6045;42.682;23.294;2022-12-17T04:34:53;3.73;;;3.00;;
11970;SDS011;6045;42.682;23.294;2022-12-17T04:37:51;4.07;;;3.13;;
11970;SDS011;6045;42.682;23.294;2022-12-17T04:40:37;6.27;;;4.07;;
11970;SDS011;6045;42.682;23.294;2022-12-17T04:43:21;4.93;;;2.57;;
11970;SDS011;6045;42.682;23.294;2022-12-17T04:46:05;3.67;;;2.83;;
11970;SDS011;6045;42.682;23.294;2022-12-17T04:48:49;3.83;;;2.67;;
11970;SDS011;6045;42.682;23.294;2022-12-17T04:51:33;7.73;;;4.13;;
11970;SDS011;6045;42.682;23.294;2022-12-17T04:54:20;4.93;;;2.67;;
11970;SDS011;6045;42.682;23.294;2022-12-17T04:57:06;3.77;;;2.83;;
11970;SDS011;6045;42.682;23.294;2022-12-17T04:59:50;6.40;;;2.97;;
11970;SDS011;6045;42.682;23.294;2022-12-17T05:02:34;4.03;;;3.73;;
11970;SDS011;6045;42.682;23.294;2022-12-17T05:05:18;6.07;;;3.20;;
11970;SDS011;6045;42.682;23.294;2022-12-17T05:08:02;1.50;;;1.40;;
11970;SDS011;6045;42.682;23.294;2022-12-17T05:10:47;4.20;;;3.07;;
11970;SDS011;6045;42.682;23.294;2022-12-17T05:13:32;3.33;;;2.67;;
11970;SDS011;6045;42.682;23.294;2022-12-17T05:16:16;4.97;;;2.50;;
11970;SDS011;6045;42.682;23.294;2022-12-17T05:22:10;3.03;;;2.70;;
11970;SDS011;6045;42.682;23.294;2022-12-17T05:25:02;2.37;;;2.13;;
11970;SDS011;6045;42.682;23.294;2022-12-17T05:27:55;4.60;;;2.23;;
11970;SDS011;6045;42.682;23.294;2022-12-17T05:30:41;6.97;;;3.40;;
11970;SDS011;6045;42.682;23.294;2022-12-17T05:33:25;4.50;;;2.83;;
11970;SDS011;6045;42.682;23.294;2022-12-17T05:36:21;3.20;;;2.50;;
11970;SDS011;6045;42.682;23.294;2022-12-17T05:39:05;4.80;;;4.23;;
11970;SDS011;6045;42.682;23.294;2022-12-17T05:41:49;6.87;;;3.80;;
11970;SDS011;6045;42.682;23.294;2022-12-17T05:44:33;3.27;;;3.03;;
11970;SDS011;6045;42.682;23.294;2022-12-17T05:47:18;3.93;;;3.10;;
11970;SDS011;6045;42.682;23.294;2022-12-17T05:50:02;3.93;;;2.90;;
11970;SDS011;6045;42.682;23.294;2022-12-17T05:52:47;5.33;;;2.83;;
11970;SDS011;6045;42.682;23.294;2022-12-17T05:55:31;5.27;;;3.03;;
11970;SDS011;6045;42.682;23.294;2022-12-17T05:58:15;3.60;;;2.90;;
11970;SDS011;6045;42.682;23.294;2022-12-17T06:01:01;3.93;;;3.63;;
11970;SDS011;6045;42.682;23.294;2022-12-17T06:03:48;4.57;;;3.93;;
11970;SDS011;6045;42.682;23.294;2022-12-17T06:06:32;5.00;;;3.23;;
11970;SDS011;6045;42.682;23.294;2022-12-17T06:09:16;4.40;;;3.40;;
11970;SDS011;6045;42.682;23.294;2022-12-17T06:12:00;2.93;;;2.73;;
11970;SDS011;6045;42.682;23.294;2022-12-17T06:14:45;5.17;;;3.60;;
11970;SDS011;6045;42.682;23.294;2022-12-17T06:17:29;4.33;;;3.30;;
11970;SDS011;6045;42.682;23.294;2022-12-17T06:20:15;5.87;;;4.17;;
11970;SDS011;6045;42.682;23.294;2022-12-17T06:22:59;4.37;;;3.10;;
11970;SDS011;6045;42.682;23.294;2022-12-17T06:25:44;6.33;;;4.10;;
11970;SDS011;6045;42.682;23.294;2022-12-17T06:28:31;6.27;;;3.90;;
11970;SDS011;6045;42.682;23.294;2022-12-17T06:31:15;7.33;;;4.77;;
11970;SDS011;6045;42.682;23.294;2022-12-17T06:34:05;8.37;;;4.90;;
11970;SDS011;6045;42.682;23.294;2022-12-17T06:36:51;7.93;;;5.40;;
11970;SDS011;6045;42.682;23.294;2022-12-17T06:39:36;10.40;;;5.83;;
11970;SDS011;6045;42.682;23.294;2022-12-17T06:42:20;7.53;;;5.60;;
11970;SDS011;6045;42.682;23.294;2022-12-17T06:45:04;9.67;;;5.33;;
11970;SDS011;6045;42.682;23.294;2022-12-17T06:47:49;7.30;;;5.23;;
11970;SDS011;6045;42.682;23.294;2022-12-17T06:50:34;8.13;;;5.63;;
11970;SDS011;6045;42.682;23.294;2022-12-17T06:53:19;10.50;;;7.33;;
11970;SDS011;6045;42.682;23.294;2022-12-17T06:56:03;6.37;;;4.93;;
11970;SDS011;6045;42.682;23.294;2022-12-17T06:58:47;9.77;;;5.67;;
11970;SDS011;6045;42.682;23.294;2022-12-17T07:01:32;11.93;;;6.93;;
11970;SDS011;6045;42.682;23.294;2022-12-17T07:04:16;10.45;;;5.65;;
11970;SDS011;6045;42.682;23.294;2022-12-17T07:07:01;6.97;;;4.38;;
11970;SDS011;6045;42.682;23.294;2022-12-17T07:09:46;11.32;;;5.47;;
11970;SDS011;6045;42.682;23.294;2022-12-17T07:12:31;6.78;;;4.13;;
11970;SDS011;6045;42.682;23.294;2022-12-17T07:15:14;7.57;;;3.88;;
11970;SDS011;6045;42.682;23.294;2022-12-17T07:17:58;5.28;;;3.03;;
11970;SDS011;6045;42.682;23.294;2022-12-17T07:20:44;4.40;;;2.70;;
11970;SDS011;6045;42.682;23.294;2022-12-17T07:23:29;3.53;;;2.90;;
11970;SDS011;6045;42.682;23.294;2022-12-17T07:26:14;4.43;;;2.92;;
11970;SDS011;6045;42.682;23.294;2022-12-17T07:28:59;4.90;;;2.70;;
11970;SDS011;6045;42.682;23.294;2022-12-17T07:31:44;5.03;;;2.17;;
11970;SDS011;6045;42.682;23.294;2022-12-17T07:34:28;3.90;;;3.13;;
11970;SDS011;6045;42.682;23.294;2022-12-17T07:37:09;4.87;;;3.43;;
11970;SDS011;6045;42.682;23.294;2022-12-17T07:39:53;4.03;;;3.00;;
11970;SDS011;6045;42.682;23.294;2022-12-17T07:42:38;5.80;;;3.03;;
11970;SDS011;6045;42.682;23.294;2022-12-17T07:45:23;3.40;;;2.70;;
11970;SDS011;6045;42.682;23.294;2022-12-17T07:48:07;9.77;;;2.57;;
11970;SDS011;6045;42.682;23.294;2022-12-17T07:50:52;5.53;;;2.87;;
11970;SDS011;6045;42.682;23.294;2022-12-17T07:53:36;4.20;;;2.70;;
11970;SDS011;6045;42.682;23.294;2022-12-17T07:56:20;4.00;;;2.00;;
11970;SDS011;6045;42.682;23.294;2022-12-17T07:59:06;1.27;;;1.17;;
11970;SDS011;6045;42.682;23.294;2022-12-17T08:01:50;0.60;;;0.60;;
11970;SDS011;6045;42.682;23.294;2022-12-17T08:04:34;0.50;;;0.50;;
11970;SDS011;6045;42.682;23.294;2022-12-17T08:07:19;0.33;;;0.33;;
11970;SDS011;6045;42.682;23.294;2022-12-17T08:10:03;0.53;;;0.53;;
11970;SDS011;6045;42.682;23.294;2022-12-17T08:12:54;1.83;;;0.77;;
11970;SDS011;6045;42.682;23.294;2022-12-17T08:15:41;3.17;;;1.00;;
11970;SDS011;6045;42.682;23.294;2022-12-17T08:18:26;3.63;;;2.65;;
11970;SDS011;6045;42.682;23.294;2022-12-17T08:21:10;1.90;;;1.63;;
11970;SDS011;6045;42.682;23.294;2022-12-17T08:23:54;4.23;;;2.10;;
11970;SDS011;6045;42.682;23.294;2022-12-17T08:26:38;2.03;;;1.63;;
11970;SDS011;6045;42.682;23.294;2022-12-17T08:29:22;4.07;;;1.23;;
11970;SDS011;6045;42.682;23.294;2022-12-17T08:32:08;3.07;;;2.30;;
11970;SDS011;6045;42.682;23.294;2022-12-17T08:34:53;4.83;;;1.80;;
11970;SDS011;6045;42.682;23.294;2022-12-17T08:37:37;6.15;;;3.20;;
11970;SDS011;6045;42.682;23.294;2022-12-17T08:40:22;4.37;;;3.47;;
11970;SDS011;6045;42.682;23.294;2022-12-17T08:43:06;4.87;;;3.60;;
11970;SDS011;6045;42.682;23.294;2022-12-17T08:45:51;6.50;;;4.28;;
11970;SDS011;6045;42.682;23.294;2022-12-17T08:48:37;5.88;;;5.22;;
11970;SDS011;6045;42.682;23.294;2022-12-17T08:51:22;7.45;;;3.80;;
11970;SDS011;6045;42.682;23.294;2022-12-17T08:54:07;4.57;;;3.38;;
11970;SDS011;6045;42.682;23.294;2022-12-17T08:56:51;7.80;;;3.63;;
11970;SDS011;6045;42.682;23.294;2022-12-17T08:59:36;6.43;;;3.90;;
11970;SDS011;6045;42.682;23.294;2022-12-17T09:02:20;4.93;;;3.83;;
11970;SDS011;6045;42.682;23.294;2022-12-17T09:05:06;5.18;;;3.47;;
11970;SDS011;6045;42.682;23.294;2022-12-17T09:07:56;2.95;;;2.53;;
11970;SDS011;6045;42.682;23.294;2022-12-17T09:10:41;4.57;;;2.85;;
11970;SDS011;6045;42.682;23.294;2022-12-17T09:13:25;11.85;;;3.25;;
11970;SDS011;6045;42.682;23.294;2022-12-17T09:16:08;4.10;;;3.03;;
11970;SDS011;6045;42.682;23.294;2022-12-17T09:18:52;5.55;;;2.58;;
11970;SDS011;6045;42.682;23.294;2022-12-17T09:21:37;3.30;;;2.30;;
11970;SDS011;6045;42.682;23.294;2022-12-17T09:24:22;3.50;;;2.20;;
11970;SDS011;6045;42.682;23.294;2022-12-17T09:27:14;5.85;;;2.50;;
11970;SDS011;6045;42.682;23.294;2022-12-17T09:29:58;2.05;;;1.40;;
11970;SDS011;6045;42.682;23.294;2022-12-17T09:32:43;2.05;;;1.63;;
11970;SDS011;6045;42.682;23.294;2022-12-17T09:35:42;3.22;;;1.58;;
11970;SDS011;6045;42.682;23.294;2022-12-17T09:38:42;2.33;;;1.48;;
11970;SDS011;6045;42.682;23.294;2022-12-17T09:41:26;2.70;;;1.63;;
11970;SDS011;6045;42.682;23.294;2022-12-17T09:44:14;3.70;;;1.83;;
11970;SDS011;6045;42.682;23.294;2022-12-17T09:47:07;3.88;;;1.80;;
11970;SDS011;6045;42.682;23.294;2022-12-17T09:50:02;2.78;;;1.45;;
11970;SDS011;6045;42.682;23.294;2022-12-17T09:52:51;1.40;;;1.20;;
11970;SDS011;6045;42.682;23.294;2022-12-17T09:58:56;2.10;;;1.70;;
11970;SDS011;6045;42.682;23.294;2022-12-17T10:01:41;2.95;;;1.65;;
11970;SDS011;6045;42.682;23.294;2022-12-17T10:04:27;1.05;;;0.60;;
11970;SDS011;6045;42.682;23.294;2022-12-17T10:07:17;0.97;;;0.50;;
11970;SDS011;6045;42.682;23.294;2022-12-17T10:10:09;2.10;;;1.50;;
11970;SDS011;6045;42.682;23.294;2022-12-17T10:12:59;0.77;;;0.70;;
11970;SDS011;6045;42.682;23.294;2022-12-17T10:15:44;1.60;;;0.93;;
11970;SDS011;6045;42.682;23.294;2022-12-17T10:18:28;1.53;;;0.67;;
11970;SDS011;6045;42.682;23.294;2022-12-17T10:21:25;0.87;;;0.87;;
11970;SDS011;6045;42.682;23.294;2022-12-17T10:24:10;1.53;;;0.70;;
11970;SDS011;6045;42.682;23.294;2022-12-17T10:26:55;0.50;;;0.50;;
11970;SDS011;6045;42.682;23.294;2022-12-17T10:29:42;0.60;;;0.50;;
11970;SDS011;6045;42.682;23.294;2022-12-17T10:32:27;0.40;;;0.40;;
11970;SDS011;6045;42.682;23.294;2022-12-17T10:35:19;1.33;;;1.00;;
11970;SDS011;6045;42.682;23.294;2022-12-17T10:38:11;0.37;;;0.37;;
11970;SDS011;6045;42.682;23.294;2022-12-17T10:40:56;0.27;;;0.27;;
11970;SDS011;6045;42.682;23.294;2022-12-17T10:43:37;0.40;;;0.30;;
11970;SDS011;6045;42.682;23.294;2022-12-17T10:46:29;2.20;;;0.30;;
11970;SDS011;6045;42.682;23.294;2022-12-17T10:49:15;1.40;;;0.27;;
11970;SDS011;6045;42.682;23.294;2022-12-17T10:52:03;1.23;;;0.73;;
11970;SDS011;6045;42.682;23.294;2022-12-17T10:54:56;0.27;;;0.23;;
11970;SDS011;6045;42.682;23.294;2022-12-17T10:57:43;0.40;;;0.40;;
11970;SDS011;6045;42.682;23.294;2022-12-17T11:00:28;0.40;;;0.30;;
11970;SDS011;6045;42.682;23.294;2022-12-17T11:03:25;0.30;;;0.20;;
11970;SDS011;6045;42.682;23.294;2022-12-17T11:06:08;0.23;;;0.20;;
11970;SDS011;6045;42.682;23.294;2022-12-17T11:08:53;0.17;;;0.13;;
11970;SDS011;6045;42.682;23.294;2022-12-17T11:11:37;0.83;;;0.60;;
11970;SDS011;6045;42.682;23.294;2022-12-17T11:14:22;0.37;;;0.37;;
11970;SDS011;6045;42.682;23.294;2022-12-17T11:17:24;0.50;;;0.47;;
11970;SDS011;6045;42.682;23.294;2022-12-17T11:20:16;0.40;;;0.30;;
11970;SDS011;6045;42.682;23.294;2022-12-17T11:23:04;0.30;;;0.30;;
11970;SDS011;6045;42.682;23.294;2022-12-17T11:25:56;0.23;;;0.23;;
11970;SDS011;6045;42.682;23.294;2022-12-17T11:28:45;0.80;;;0.50;;
11970;SDS011;6045;42.682;23.294;2022-12-17T11:31:33;0.73;;;0.60;;
11970;SDS011;6045;42.682;23.294;2022-12-17T11:34:31;0.87;;;0.73;;
11970;SDS011;6045;42.682;23.294;2022-12-17T11:37:29;1.20;;;0.73;;
11970;SDS011;6045;42.682;23.294;2022-12-17T11:40:19;1.43;;;0.73;;
11970;SDS011;6045;42.682;23.294;2022-12-17T11:43:12;0.50;;;0.50;;
11970;SDS011;6045;42.682;23.294;2022-12-17T11:46:03;0.70;;;0.50;;
11970;SDS011;6045;42.682;23.294;2022-12-17T11:49:00;1.33;;;0.63;;
11970;SDS011;6045;42.682;23.294;2022-12-17T11:52:02;1.70;;;0.43;;
11970;SDS011;6045;42.682;23.294;2022-12-17T11:55:00;0.73;;;0.43;;
11970;SDS011;6045;42.682;23.294;2022-12-17T11:57:56;0.77;;;0.77;;
11970;SDS011;6045;42.682;23.294;2022-12-17T12:01:03;0.70;;;0.50;;
11970;SDS011;6045;42.682;23.294;2022-12-17T12:03:57;1.83;;;0.60;;
11970;SDS011;6045;42.682;23.294;2022-12-17T12:06:52;2.43;;;1.00;;
11970;SDS011;6045;42.682;23.294;2022-12-17T12:09:44;2.30;;;1.60;;
11970;SDS011;6045;42.682;23.294;2022-12-17T12:12:40;2.50;;;1.53;;
11970;SDS011;6045;42.682;23.294;2022-12-17T12:15:36;5.70;;;3.00;;
11970;SDS011;6045;42.682;23.294;2022-12-17T12:18:29;1.60;;;1.40;;
11970;SDS011;6045;42.682;23.294;2022-12-17T12:21:30;3.60;;;2.67;;
11970;SDS011;6045;42.682;23.294;2022-12-17T12:24:28;3.17;;;2.20;;
11970;SDS011;6045;42.682;23.294;2022-12-17T12:27:22;2.00;;;1.57;;
11970;SDS011;6045;42.682;23.294;2022-12-17T12:30:16;2.90;;;2.53;;
11970;SDS011;6045;42.682;23.294;2022-12-17T12:33:06;3.60;;;2.27;;
11970;SDS011;6045;42.682;23.294;2022-12-17T12:36:01;2.40;;;2.20;;
11970;SDS011;6045;42.682;23.294;2022-12-17T12:38:50;2.47;;;1.80;;
11970;SDS011;6045;42.682;23.294;2022-12-17T12:41:46;3.10;;;2.03;;
11970;SDS011;6045;42.682;23.294;2022-12-17T12:44:39;2.63;;;1.67;;
11970;SDS011;6045;42.682;23.294;2022-12-17T12:47:27;3.10;;;2.37;;
11970;SDS011;6045;42.682;23.294;2022-12-17T12:50:21;4.43;;;2.30;;
11970;SDS011;6045;42.682;23.294;2022-12-17T12:53:12;2.60;;;2.30;;
11970;SDS011;6045;42.682;23.294;2022-12-17T12:55:56;3.60;;;2.10;;
11970;SDS011;6045;42.682;23.294;2022-12-17T12:58:40;2.17;;;1.97;;
11970;SDS011;6045;42.682;23.294;2022-12-17T13:01:30;3.27;;;2.53;;
11970;SDS011;6045;42.682;23.294;2022-12-17T13:07:46;2.13;;;1.93;;
11970;SDS011;6045;42.682;23.294;2022-12-17T13:10:18;2.43;;;2.20;;
11970;SDS011;6045;42.682;23.294;2022-12-17T13:12:53;6.07;;;3.30;;
11970;SDS011;6045;42.682;23.294;2022-12-17T13:15:22;4.57;;;2.87;;
11970;SDS011;6045;42.682;23.294;2022-12-17T13:18:01;3.93;;;2.30;;
11970;SDS011;6045;42.682;23.294;2022-12-17T13:20:41;3.50;;;1.83;;
11970;SDS011;6045;42.682;23.294;2022-12-17T13:23:23;3.60;;;1.83;;
11970;SDS011;6045;42.682;23.294;2022-12-17T13:28:58;3.17;;;2.27;;
11970;SDS011;6045;42.682;23.294;2022-12-17T13:31:42;2.43;;;1.80;;
11970;SDS011;6045;42.682;23.294;2022-12-17T13:34:21;3.97;;;2.00;;
11970;SDS011;6045;42.682;23.294;2022-12-17T13:36:58;3.70;;;2.03;;
11970;SDS011;6045;42.682;23.294;2022-12-17T13:39:35;5.07;;;3.27;;
11970;SDS011;6045;42.682;23.294;2022-12-17T13:42:15;5.27;;;2.57;;
11970;SDS011;6045;42.682;23.294;2022-12-17T13:44:44;4.00;;;2.40;;
11970;SDS011;6045;42.682;23.294;2022-12-17T13:47:17;3.47;;;2.10;;
11970;SDS011;6045;42.682;23.294;2022-12-17T13:49:49;5.13;;;3.20;;
11970;SDS011;6045;42.682;23.294;2022-12-17T13:52:17;5.77;;;2.83;;
11970;SDS011;6045;42.682;23.294;2022-12-17T13:54:51;4.27;;;2.87;;
11970;SDS011;6045;42.682;23.294;2022-12-17T13:57:20;6.63;;;2.93;;
11970;SDS011;6045;42.682;23.294;2022-12-17T13:59:48;4.07;;;2.43;;
11970;SDS011;6045;42.682;23.294;2022-12-17T14:02:24;3.30;;;2.45;;
11970;SDS011;6045;42.682;23.294;2022-12-17T14:04:53;2.92;;;2.28;;
11970;SDS011;6045;42.682;23.294;2022-12-17T14:07:21;4.90;;;2.78;;
11970;SDS011;6045;42.682;23.294;2022-12-17T14:09:53;4.63;;;2.45;;
11970;SDS011;6045;42.682;23.294;2022-12-17T14:12:28;3.60;;;2.50;;
11970;SDS011;6045;42.682;23.294;2022-12-17T14:14:59;2.17;;;1.70;;
11970;SDS011;6045;42.682;23.294;2022-12-17T14:17:34;3.17;;;2.40;;
11970;SDS011;6045;42.682;23.294;2022-12-17T14:20:10;3.47;;;2.72;;
11970;SDS011;6045;42.682;23.294;2022-12-17T14:22:47;3.97;;;2.17;;
11970;SDS011;6045;42.682;23.294;2022-12-17T14:25:18;5.53;;;2.13;;
11970;SDS011;6045;42.682;23.294;2022-12-17T14:27:53;4.93;;;3.03;;
11970;SDS011;6045;42.682;23.294;2022-12-17T14:30:29;3.20;;;2.40;;
11970;SDS011;6045;42.682;23.294;2022-12-17T14:33:24;2.53;;;1.87;;
11970;SDS011;6045;42.682;23.294;2022-12-17T14:36:04;6.10;;;2.30;;
11970;SDS011;6045;42.682;23.294;2022-12-17T14:38:52;2.43;;;1.90;;
11970;SDS011;6045;42.682;23.294;2022-12-17T14:41:22;2.90;;;2.17;;
11970;SDS011;6045;42.682;23.294;2022-12-17T14:44:12;4.13;;;2.70;;
11970;SDS011;6045;42.682;23.294;2022-12-17T14:46:45;2.03;;;1.80;;
11970;SDS011;6045;42.682;23.294;2022-12-17T14:49:14;2.03;;;1.83;;
11970;SDS011;6045;42.682;23.294;2022-12-17T14:51:44;4.00;;;2.27;;
11970;SDS011;6045;42.682;23.294;2022-12-17T14:54:16;3.80;;;2.13;;
11970;SDS011;6045;42.682;23.294;2022-12-17T14:56:46;2.87;;;2.47;;
11970;SDS011;6045;42.682;23.294;2022-12-17T14:59:22;2.47;;;2.13;;
11970;SDS011;6045;42.682;23.294;2022-12-17T15:01:50;5.30;;;2.50;;
11970;SDS011;6045;42.682;23.294;2022-12-17T15:04:17;3.27;;;2.57;;
11970;SDS011;6045;42.682;23.294;2022-12-17T15:06:44;4.10;;;3.33;;
11970;SDS011;6045;42.682;23.294;2022-12-17T15:09:11;6.13;;;3.73;;
11970;SDS011;6045;42.682;23.294;2022-12-17T15:11:38;3.60;;;2.70;;
11970;SDS011;6045;42.682;23.294;2022-12-17T15:14:07;5.37;;;3.43;;
11970;SDS011;6045;42.682;23.294;2022-12-17T15:16:33;6.53;;;3.87;;
11970;SDS011;6045;42.682;23.294;2022-12-17T15:19:00;5.43;;;3.60;;
11970;SDS011;6045;42.682;23.294;2022-12-17T15:21:27;7.23;;;4.00;;
11970;SDS011;6045;42.682;23.294;2022-12-17T15:23:54;7.83;;;5.00;;
11970;SDS011;6045;42.682;23.294;2022-12-17T15:26:21;6.97;;;4.60;;
11970;SDS011;6045;42.682;23.294;2022-12-17T15:28:48;8.67;;;4.97;;
11970;SDS011;6045;42.682;23.294;2022-12-17T15:31:16;5.30;;;3.40;;
11970;SDS011;6045;42.682;23.294;2022-12-17T15:33:43;5.63;;;3.97;;
11970;SDS011;6045;42.682;23.294;2022-12-17T15:36:10;6.50;;;3.43;;
11970;SDS011;6045;42.682;23.294;2022-12-17T15:38:37;7.00;;;4.47;;
11970;SDS011;6045;42.682;23.294;2022-12-17T15:41:05;9.17;;;4.07;;
11970;SDS011;6045;42.682;23.294;2022-12-17T15:43:46;7.50;;;4.17;;
11970;SDS011;6045;42.682;23.294;2022-12-17T15:46:13;7.53;;;4.13;;
11970;SDS011;6045;42.682;23.294;2022-12-17T15:48:42;8.57;;;5.00;;
11970;SDS011;6045;42.682;23.294;2022-12-17T15:51:09;6.67;;;4.37;;
11970;SDS011;6045;42.682;23.294;2022-12-17T15:53:35;6.63;;;4.63;;
11970;SDS011;6045;42.682;23.294;2022-12-17T15:56:03;9.63;;;5.97;;
11970;SDS011;6045;42.682;23.294;2022-12-17T15:58:30;7.67;;;4.90;;
11970;SDS011;6045;42.682;23.294;2022-12-17T16:00:57;7.83;;;5.07;;
11970;SDS011;6045;42.682;23.294;2022-12-17T16:03:24;8.17;;;5.43;;
11970;SDS011;6045;42.682;23.294;2022-12-17T16:05:52;11.60;;;6.30;;
11970;SDS011;6045;42.682;23.294;2022-12-17T16:08:21;7.57;;;5.97;;
11970;SDS011;6045;42.682;23.294;2022-12-17T16:10:48;9.03;;;5.63;;
11970;SDS011;6045;42.682;23.294;2022-12-17T16:13:16;12.43;;;7.10;;
11970;SDS011;6045;42.682;23.294;2022-12-17T16:15:42;11.90;;;7.73;;
11970;SDS011;6045;42.682;23.294;2022-12-17T16:18:09;17.17;;;9.87;;
11970;SDS011;6045;42.682;23.294;2022-12-17T16:20:36;14.27;;;7.87;;
11970;SDS011;6045;42.682;23.294;2022-12-17T16:23:04;12.47;;;8.13;;
11970;SDS011;6045;42.682;23.294;2022-12-17T16:25:31;15.23;;;9.33;;
11970;SDS011;6045;42.682;23.294;2022-12-17T16:27:58;18.10;;;10.57;;
11970;SDS011;6045;42.682;23.294;2022-12-17T16:30:24;16.37;;;9.03;;
11970;SDS011;6045;42.682;23.294;2022-12-17T16:32:51;17.27;;;10.83;;
11970;SDS011;6045;42.682;23.294;2022-12-17T16:35:18;21.17;;;10.37;;